Time;durP1;ratioP1;P1;durP2;ratioP2;P2;SDS_P1;SDS_P2;PMS_P1;PMS_P2;Temp;Humidity;BMP_temperature;BMP_pressure;BME280_temperature;BME280_humidity;BME280_pressure;Samples;Min_cycle;Max_cycle;Signal;HPM_P1;HPM_P2
2020/12/05 00:00:50;;;;;;;2.08;1.30;;;4.10;99.90;;;;;;5066082;28;20012;-50
2020/12/05 00:03:15;;;;;;;1.75;1.30;;;4.10;99.90;;;;;;5072936;28;20501;-51
2020/12/05 00:05:42;;;;;;;1.38;1.00;;;4.20;99.90;;;;;;5085870;28;20032;-50
2020/12/05 00:08:08;;;;;;;1.35;1.13;;;4.20;99.90;;;;;;5085976;28;20114;-50
2020/12/05 00:10:33;;;;;;;1.35;1.00;;;4.30;99.90;;;;;;5085650;28;20066;-52
2020/12/05 00:12:59;;;;;;;1.27;0.80;;;4.40;99.90;;;;;;5065913;28;20044;-50
2020/12/05 00:15:25;;;;;;;1.30;1.00;;;4.40;99.90;;;;;;5065849;28;20025;-50
2020/12/05 00:17:50;;;;;;;1.33;1.00;;;4.40;99.90;;;;;;5065564;28;20363;-54
2020/12/05 00:20:16;;;;;;;1.13;0.85;;;4.50;99.90;;;;;;5066241;28;20032;-50
2020/12/05 00:22:42;;;;;;;2.10;1.23;;;4.40;99.90;;;;;;5066138;28;20115;-51
2020/12/05 00:25:08;;;;;;;1.80;1.20;;;4.30;99.90;;;;;;5065376;28;20040;-50
2020/12/05 00:27:33;;;;;;;1.88;1.27;;;4.20;99.90;;;;;;5065517;28;20055;-54
2020/12/05 00:29:59;;;;;;;1.33;1.23;;;4.20;99.90;;;;;;5065500;28;20016;-53
2020/12/05 00:32:28;;;;;;;1.85;1.30;;;4.20;99.90;;;;;;5065849;28;20056;-52
2020/12/05 00:34:54;;;;;;;2.38;1.30;;;4.10;99.90;;;;;;5064928;28;20085;-53
2020/12/05 00:37:20;;;;;;;2.20;1.20;;;4.20;99.90;;;;;;5069442;28;20032;-51
2020/12/05 00:39:46;;;;;;;2.97;2.20;;;4.10;99.90;;;;;;5069921;28;20013;-49
2020/12/05 00:42:11;;;;;;;2.95;1.80;;;4.00;99.90;;;;;;5068661;28;20082;-49
2020/12/05 00:44:37;;;;;;;2.25;1.60;;;4.00;99.90;;;;;;5069603;28;20092;-52
2020/12/05 00:47:03;;;;;;;2.15;1.95;;;4.10;99.90;;;;;;5069058;28;20909;-49
2020/12/05 00:49:30;;;;;;;3.53;2.20;;;4.10;99.90;;;;;;5078238;28;20656;-53
2020/12/05 00:51:55;;;;;;;2.30;1.90;;;4.10;99.90;;;;;;5089376;28;20116;-50
2020/12/05 00:54:21;;;;;;;2.83;1.92;;;4.10;99.90;;;;;;5089218;28;20161;-49
2020/12/05 00:56:49;;;;;;;2.85;2.20;;;4.00;99.90;;;;;;5088337;28;20594;-49
2020/12/05 00:59:14;;;;;;;3.40;2.97;;;4.00;99.90;;;;;;5081596;28;20065;-51
2020/12/05 01:01:40;;;;;;;4.28;2.95;;;3.90;99.90;;;;;;5069138;28;20453;-50
2020/12/05 01:04:06;;;;;;;3.38;2.70;;;4.00;99.90;;;;;;5068660;28;20020;-50
2020/12/05 01:06:31;;;;;;;3.33;2.58;;;4.00;99.90;;;;;;5068955;28;20096;-49
2020/12/05 01:08:57;;;;;;;3.85;2.78;;;3.90;99.90;;;;;;5067878;28;20498;-50
2020/12/05 01:11:23;;;;;;;4.30;3.05;;;3.90;99.90;;;;;;5068659;28;20112;-50
2020/12/05 01:13:49;;;;;;;3.53;2.65;;;3.90;99.90;;;;;;5068710;28;20039;-52
2020/12/05 01:16:16;;;;;;;3.75;2.85;;;3.90;99.90;;;;;;5069008;28;20039;-52
2020/12/05 01:18:43;;;;;;;5.28;3.30;;;3.90;99.90;;;;;;5068720;28;20035;-51
2020/12/05 01:21:13;;;;;;;3.90;3.47;;;3.90;99.90;;;;;;5068626;28;20032;-52
2020/12/05 01:23:39;;;;;;;5.40;3.72;;;3.90;99.90;;;;;;5068866;28;20436;-52
2020/12/05 01:26:05;;;;;;;5.25;3.17;;;3.90;99.90;;;;;;5067176;28;20029;-52
2020/12/05 01:28:32;;;;;;;6.43;3.53;;;3.90;99.90;;;;;;5068487;28;20032;-52
2020/12/05 01:30:57;;;;;;;6.00;4.00;;;3.90;99.90;;;;;;5068217;28;20104;-52
2020/12/05 01:33:23;;;;;;;4.85;3.30;;;3.90;99.90;;;;;;5068404;28;20124;-52
2020/12/05 01:35:49;;;;;;;6.32;3.85;;;3.90;99.90;;;;;;5068429;28;20029;-49
2020/12/05 01:38:14;;;;;;;5.13;4.03;;;3.90;99.90;;;;;;5078591;28;20070;-49
2020/12/05 01:40:57;;;;;;;4.28;3.58;;;3.90;99.90;;;;;;5088445;28;20071;-52
2020/12/05 01:43:23;;;;;;;4.15;3.55;;;3.90;99.90;;;;;;5088616;28;20030;-49
2020/12/05 01:45:49;;;;;;;5.03;3.50;;;3.90;99.90;;;;;;5088429;28;20028;-50
2020/12/05 01:48:19;;;;;;;3.47;3.13;;;3.90;99.90;;;;;;5076908;28;20032;-49
2020/12/05 01:50:46;;;;;;;4.47;3.50;;;3.90;99.90;;;;;;5068745;28;20032;-49
2020/12/05 01:53:14;;;;;;;6.47;3.92;;;3.90;99.90;;;;;;5068335;28;20025;-50
2020/12/05 01:55:47;;;;;;;5.07;3.70;;;3.90;99.90;;;;;;5067957;28;20417;-51
2020/12/05 01:58:14;;;;;;;4.55;3.83;;;3.90;99.90;;;;;;5068101;28;20017;-49
2020/12/05 02:00:40;;;;;;;4.65;3.75;;;3.90;99.90;;;;;;5067944;28;20028;-49
2020/12/05 02:03:07;;;;;;;4.93;4.13;;;4.00;99.90;;;;;;5067446;28;20082;-51
2020/12/05 02:05:59;;;;;;;4.85;3.30;;;4.00;99.90;;;;;;5067480;28;20038;-52
2020/12/05 02:08:47;;;;;;;4.05;3.33;;;4.00;99.90;;;;;;5067394;28;20521;-49
2020/12/05 02:11:17;;;;;;;6.25;3.60;;;4.10;99.90;;;;;;5068123;28;20107;-50
2020/12/05 02:13:47;;;;;;;3.60;2.70;;;4.10;99.90;;;;;;5068041;28;20035;-51
2020/12/05 02:16:15;;;;;;;4.57;2.80;;;4.10;99.90;;;;;;5067751;28;20040;-52
2020/12/05 02:18:43;;;;;;;3.95;3.00;;;4.20;99.90;;;;;;5067372;28;20031;-52
2020/12/05 02:21:11;;;;;;;5.47;3.05;;;4.20;99.90;;;;;;5081109;28;20173;-53
2020/12/05 02:23:37;;;;;;;3.55;2.45;;;4.30;99.90;;;;;;5083274;28;20089;-52
2020/12/05 02:26:09;;;;;;;6.60;2.88;;;4.30;99.90;;;;;;5082242;28;20052;-51
2020/12/05 02:28:34;;;;;;;4.45;3.00;;;4.30;99.90;;;;;;5072651;28;20095;-53
2020/12/05 02:31:01;;;;;;;2.97;2.38;;;4.20;99.90;;;;;;5087309;28;20028;-52
2020/12/05 02:33:26;;;;;;;5.78;2.80;;;4.30;99.90;;;;;;5087175;28;20067;-53
2020/12/05 02:35:52;;;;;;;2.97;2.20;;;4.30;99.90;;;;;;5084397;28;20067;-51
2020/12/05 02:38:20;;;;;;;2.70;2.35;;;4.30;99.90;;;;;;5067069;28;20016;-51
2020/12/05 02:40:46;;;;;;;3.42;2.47;;;4.30;99.90;;;;;;5066430;28;20459;-50
2020/12/05 02:43:13;;;;;;;3.35;2.65;;;4.30;99.90;;;;;;5066374;28;20070;-51
2020/12/05 02:45:39;;;;;;;4.03;2.58;;;4.30;99.90;;;;;;5066324;28;20094;-49
2020/12/05 02:48:06;;;;;;;3.22;2.38;;;4.30;99.90;;;;;;5066722;28;20025;-50
2020/12/05 02:50:32;;;;;;;3.03;2.55;;;4.30;99.90;;;;;;5067011;28;20056;-50
2020/12/05 02:52:58;;;;;;;4.13;2.60;;;4.30;99.90;;;;;;5066689;28;20133;-49
2020/12/05 02:55:23;;;;;;;3.38;2.20;;;4.30;99.90;;;;;;5081607;28;20028;-52
2020/12/05 02:57:49;;;;;;;2.95;2.10;;;4.30;99.90;;;;;;5087227;28;20089;-52
2020/12/05 03:00:15;;;;;;;2.50;2.20;;;4.30;99.90;;;;;;5086038;28;20101;-52
2020/12/05 03:02:41;;;;;;;4.15;2.67;;;4.30;99.90;;;;;;5066451;28;20052;-52
2020/12/05 03:05:06;;;;;;;2.63;2.05;;;4.30;99.90;;;;;;5066569;28;20032;-53
2020/12/05 03:07:32;;;;;;;2.83;1.92;;;4.30;99.90;;;;;;5077835;28;20325;-52
2020/12/05 03:09:58;;;;;;;2.60;2.10;;;4.30;99.90;;;;;;5086192;28;20430;-51
2020/12/05 03:12:23;;;;;;;6.80;2.33;;;4.20;99.90;;;;;;5070856;28;20044;-53
2020/12/05 03:14:49;;;;;;;2.20;1.80;;;4.20;99.90;;;;;;5067104;28;20036;-52
2020/12/05 03:17:15;;;;;;;2.25;1.85;;;4.20;99.90;;;;;;5066095;28;20071;-53
2020/12/05 03:19:41;;;;;;;2.50;1.88;;;4.20;99.90;;;;;;5066616;28;20021;-51
2020/12/05 03:22:06;;;;;;;3.15;1.90;;;4.20;99.90;;;;;;5066039;28;20028;-50
2020/12/05 03:24:32;;;;;;;2.85;2.00;;;4.20;99.90;;;;;;5066441;28;20060;-50
2020/12/05 03:26:58;;;;;;;2.75;2.03;;;4.20;99.90;;;;;;5065970;28;20028;-51
2020/12/05 03:29:24;;;;;;;2.63;1.80;;;4.20;99.90;;;;;;5069601;28;20032;-53
2020/12/05 03:34:18;;;;;;;1.60;1.40;;;4.20;99.90;;;;;;5086546;28;20031;-52
2020/12/05 03:36:44;;;;;;;1.80;1.45;;;4.20;99.90;;;;;;5084699;28;20030;-52
2020/12/05 03:39:10;;;;;;;1.23;1.13;;;4.30;99.90;;;;;;5083838;28;20028;-53
2020/12/05 03:41:36;;;;;;;2.33;1.88;;;4.20;99.90;;;;;;5065968;28;20070;-49
2020/12/05 03:44:02;;;;;;;2.20;1.48;;;4.20;99.90;;;;;;5065821;28;20021;-48
2020/12/05 03:46:28;;;;;;;1.45;0.90;;;4.20;99.90;;;;;;5066409;28;20013;-51
2020/12/05 03:48:53;;;;;;;2.15;1.13;;;4.20;99.90;;;;;;5066641;28;20474;-51
2020/12/05 03:51:19;;;;;;;1.50;1.30;;;4.20;99.90;;;;;;5066206;28;20040;-51
2020/12/05 03:53:45;;;;;;;1.35;1.23;;;4.30;99.90;;;;;;5066314;28;20056;-50
2020/12/05 03:56:11;;;;;;;3.13;1.80;;;4.30;99.90;;;;;;5065728;28;20028;-49
2020/12/05 03:58:38;;;;;;;2.05;1.42;;;4.30;99.90;;;;;;5066008;28;20024;-50
2020/12/05 04:01:04;;;;;;;2.53;1.55;;;4.20;99.90;;;;;;5065683;28;20024;-50
2020/12/05 04:03:30;;;;;;;2.78;1.50;;;4.20;99.90;;;;;;5065725;28;20039;-52
2020/12/05 04:05:56;;;;;;;1.98;1.30;;;4.20;99.90;;;;;;5065356;28;20401;-53
2020/12/05 04:08:21;;;;;;;1.20;1.10;;;4.30;99.90;;;;;;5065228;28;20028;-53
2020/12/05 04:10:47;;;;;;;2.33;1.60;;;4.30;99.90;;;;;;5067664;28;20123;-52
2020/12/05 04:13:13;;;;;;;1.67;1.58;;;4.20;99.90;;;;;;5069466;28;20074;-51
2020/12/05 04:15:38;;;;;;;2.58;1.48;;;4.20;99.90;;;;;;5070024;28;20839;-50
2020/12/05 04:18:04;;;;;;;1.73;1.00;;;4.30;99.90;;;;;;5069078;28;20025;-52
2020/12/05 04:20:30;;;;;;;1.30;1.08;;;4.20;99.90;;;;;;5069647;28;20031;-52
2020/12/05 04:22:56;;;;;;;2.90;1.83;;;4.20;99.90;;;;;;5069268;28;20024;-50
2020/12/05 04:25:23;;;;;;;2.22;1.50;;;4.20;99.90;;;;;;5070025;28;20032;-49
2020/12/05 04:27:49;;;;;;;1.60;1.42;;;4.30;99.90;;;;;;5084108;28;20029;-49
2020/12/05 04:30:14;;;;;;;1.40;1.30;;;4.30;99.90;;;;;;5069556;28;20070;-50
2020/12/05 04:32:40;;;;;;;3.05;1.65;;;4.30;99.90;;;;;;5069358;28;20106;-49
2020/12/05 04:35:06;;;;;;;2.58;1.70;;;4.30;99.90;;;;;;5069794;28;20032;-50
2020/12/05 04:37:31;;;;;;;1.98;1.10;;;4.20;99.90;;;;;;5065922;28;20040;-51
2020/12/05 04:39:57;;;;;;;1.90;1.00;;;4.20;99.90;;;;;;5088648;28;20143;-50
2020/12/05 04:42:22;;;;;;;2.28;1.48;;;4.20;99.90;;;;;;5089662;28;20501;-49
2020/12/05 04:44:48;;;;;;;0.88;0.80;;;4.10;99.90;;;;;;5089733;28;20035;-51
2020/12/05 04:47:16;;;;;;;1.02;0.80;;;4.20;99.90;;;;;;5077955;28;20094;-51
2020/12/05 04:49:43;;;;;;;0.60;0.60;;;4.20;99.90;;;;;;5069253;28;20031;-49
2020/12/05 04:52:36;;;;;;;0.63;0.60;;;4.30;99.90;;;;;;5069203;28;20025;-50
2020/12/05 04:55:03;;;;;;;1.25;1.02;;;4.40;99.90;;;;;;5059084;28;20123;-51
2020/12/05 04:57:39;;;;;;;1.20;0.90;;;4.40;99.90;;;;;;5068226;28;20122;-51
2020/12/05 05:00:07;;;;;;;1.45;1.02;;;4.30;99.90;;;;;;5069263;28;20581;-52
2020/12/05 05:02:38;;;;;;;1.48;1.15;;;4.20;99.90;;;;;;5069565;28;20016;-53
2020/12/05 05:05:04;;;;;;;2.28;1.52;;;4.10;99.90;;;;;;5072998;28;20498;-50
2020/12/05 05:07:31;;;;;;;1.35;1.25;;;4.10;99.90;;;;;;5088070;28;20027;-52
2020/12/05 05:10:13;;;;;;;1.65;1.17;;;4.20;99.90;;;;;;5087357;28;20554;-49
2020/12/05 05:12:38;;;;;;;1.90;1.10;;;4.20;99.90;;;;;;5089201;28;20081;-50
2020/12/05 05:15:20;;;;;;;1.02;0.98;;;4.10;99.90;;;;;;5085567;28;20036;-50
2020/12/05 05:17:49;;;;;;;1.60;1.20;;;4.10;99.90;;;;;;5068616;28;20158;-50
2020/12/05 05:20:21;;;;;;;2.33;1.42;;;3.90;99.90;;;;;;5068870;28;20032;-50
2020/12/05 05:22:47;;;;;;;1.20;1.10;;;3.90;99.90;;;;;;5068631;28;20382;-49
2020/12/05 05:25:13;;;;;;;1.17;1.00;;;4.00;99.90;;;;;;5086160;28;20059;-49
2020/12/05 05:27:38;;;;;;;2.47;1.50;;;4.10;99.90;;;;;;5088737;28;20028;-50
2020/12/05 05:30:10;;;;;;;3.42;1.92;;;4.20;99.90;;;;;;5089338;28;20043;-51
2020/12/05 05:32:47;;;;;;;4.97;2.20;;;4.20;99.90;;;;;;5089303;28;20055;-49
2020/12/05 05:35:15;;;;;;;4.30;2.60;;;4.20;99.90;;;;;;5070830;28;20036;-49
2020/12/05 05:37:43;;;;;;;4.88;2.05;;;4.20;99.90;;;;;;5067804;28;20025;-52
2020/12/05 05:40:12;;;;;;;8.35;2.65;;;4.20;99.90;;;;;;5068107;28;20112;-51
2020/12/05 05:42:40;;;;;;;7.07;2.17;;;4.00;99.90;;;;;;5067477;28;20107;-52
2020/12/05 05:45:23;;;;;;;5.78;2.15;;;4.00;99.90;;;;;;5068819;28;20402;-49
2020/12/05 05:47:50;;;;;;;4.72;2.03;;;4.00;99.90;;;;;;5067877;28;20065;-49
2020/12/05 05:50:25;;;;;;;4.00;1.90;;;4.00;99.90;;;;;;5068417;28;20035;-52
2020/12/05 05:52:53;;;;;;;4.60;2.45;;;4.20;99.90;;;;;;5078402;28;20552;-49
2020/12/05 05:55:19;;;;;;;4.35;2.30;;;4.10;99.90;;;;;;5088527;28;20024;-52
2020/12/05 05:57:46;;;;;;;3.92;2.40;;;4.00;99.90;;;;;;5088243;28;20382;-52
2020/12/05 06:00:11;;;;;;;2.33;1.70;;;4.00;99.90;;;;;;5087876;28;20173;-48
2020/12/05 06:02:40;;;;;;;3.33;1.50;;;4.00;99.90;;;;;;5079257;28;20127;-51
2020/12/05 06:05:07;;;;;;;1.80;1.33;;;3.80;99.90;;;;;;5068364;28;20082;-49
2020/12/05 06:07:37;;;;;;;2.45;1.30;;;3.80;99.90;;;;;;5068370;28;20059;-49
2020/12/05 06:10:03;;;;;;;2.08;1.40;;;3.70;99.90;;;;;;5067409;28;20024;-50
2020/12/05 06:12:34;;;;;;;2.92;2.17;;;3.50;99.90;;;;;;5067887;28;20037;-51
2020/12/05 06:15:00;;;;;;;2.05;1.48;;;3.50;99.90;;;;;;5067174;28;20036;-51
2020/12/05 06:17:27;;;;;;;2.50;1.88;;;3.50;99.90;;;;;;5067761;28;20534;-52
2020/12/05 06:19:55;;;;;;;2.35;1.58;;;3.60;99.90;;;;;;5066489;28;20025;-52
2020/12/05 06:22:46;;;;;;;2.08;1.75;;;3.70;99.90;;;;;;5068405;28;20092;-51
2020/12/05 06:25:16;;;;;;;1.65;1.50;;;3.40;99.90;;;;;;5081338;28;20051;-50
2020/12/05 06:28:03;;;;;;;3.42;2.17;;;3.60;99.90;;;;;;5087696;28;20016;-49
2020/12/05 06:30:29;;;;;;;4.53;2.50;;;3.40;99.90;;;;;;5086375;28;20037;-52
2020/12/05 06:32:57;;;;;;;3.88;2.10;;;3.30;99.90;;;;;;5086759;28;20506;-52
2020/12/05 06:35:23;;;;;;;6.57;3.28;;;3.40;99.90;;;;;;5086945;28;20101;-51
2020/12/05 06:37:55;;;;;;;7.63;3.38;;;3.30;99.90;;;;;;5087142;28;20020;-50
2020/12/05 06:40:23;;;;;;;7.97;4.32;;;3.40;99.90;;;;;;5087674;28;20119;-49
2020/12/05 06:42:54;;;;;;;7.03;3.63;;;3.50;99.90;;;;;;5086924;28;20089;-50
2020/12/05 06:45:25;;;;;;;6.15;2.88;;;3.60;99.90;;;;;;5087812;28;20531;-52
2020/12/05 06:47:54;;;;;;;4.80;2.70;;;3.50;99.90;;;;;;5087105;28;20058;-52
2020/12/05 06:50:42;;;;;;;4.53;2.20;;;3.40;99.90;;;;;;5084545;28;20024;-52
2020/12/05 06:53:28;;;;;;;3.30;2.13;;;3.40;99.90;;;;;;5066858;28;20375;-52
2020/12/05 06:55:54;;;;;;;5.97;3.15;;;3.00;99.90;;;;;;5065562;28;20037;-51
2020/12/05 06:58:31;;;;;;;5.35;2.88;;;3.00;99.90;;;;;;5086468;28;20069;-51
2020/12/05 07:00:57;;;;;;;2.97;2.10;;;3.00;99.90;;;;;;5084866;28;20108;-50
2020/12/05 07:03:28;;;;;;;2.83;1.70;;;3.20;99.90;;;;;;5085705;28;20445;-52
2020/12/05 07:05:54;;;;;;;3.15;1.88;;;3.30;99.90;;;;;;5071851;28;20093;-51
2020/12/05 07:08:41;;;;;;;5.78;2.90;;;3.20;99.90;;;;;;5065229;28;20058;-51
2020/12/05 07:11:09;;;;;;;6.10;3.05;;;3.30;99.90;;;;;;5076479;28;20039;-53
2020/12/05 07:13:43;;;;;;;4.00;2.58;;;3.30;99.90;;;;;;5085335;28;20023;-52
2020/12/05 07:16:12;;;;;;;4.90;2.38;;;3.50;99.90;;;;;;5085024;28;20169;-50
2020/12/05 07:18:40;;;;;;;4.00;2.28;;;3.50;99.90;;;;;;5080674;28;20068;-51
2020/12/05 07:21:07;;;;;;;3.08;2.05;;;3.60;99.90;;;;;;5064950;28;20020;-52
2020/12/05 07:23:33;;;;;;;3.45;2.30;;;3.60;99.90;;;;;;5065082;28;20031;-52
2020/12/05 07:26:00;;;;;;;3.50;2.00;;;3.70;99.90;;;;;;5064693;28;20035;-49
2020/12/05 07:28:26;;;;;;;2.63;1.90;;;3.70;99.90;;;;;;5064994;28;20024;-50
2020/12/05 07:30:52;;;;;;;2.42;1.77;;;3.60;99.90;;;;;;5064733;28;20487;-49
2020/12/05 07:33:20;;;;;;;3.85;2.50;;;3.60;99.90;;;;;;5065763;28;20284;-49
2020/12/05 07:35:54;;;;;;;4.63;2.60;;;3.30;99.90;;;;;;5076123;28;20020;-49
2020/12/05 07:38:21;;;;;;;4.57;3.00;;;3.20;99.90;;;;;;5084544;28;20093;-48
2020/12/05 07:40:46;;;;;;;6.20;3.97;;;3.20;99.90;;;;;;5085704;28;20094;-49
2020/12/05 07:43:17;;;;;;;5.97;3.97;;;3.10;99.90;;;;;;5083607;28;20115;-49
2020/12/05 07:45:45;;;;;;;4.70;3.10;;;3.10;99.90;;;;;;5084731;28;20043;-49
2020/12/05 07:48:12;;;;;;;4.53;3.22;;;3.10;99.90;;;;;;5084582;28;20032;-49
2020/12/05 07:50:38;;;;;;;6.30;3.30;;;3.00;99.90;;;;;;5084758;28;20122;-49
2020/12/05 07:53:04;;;;;;;4.30;2.85;;;2.90;99.90;;;;;;5074562;28;20112;-52
2020/12/05 07:55:30;;;;;;;3.90;2.90;;;3.00;99.90;;;;;;5064588;28;20068;-52
2020/12/05 07:57:56;;;;;;;3.42;2.55;;;3.20;99.90;;;;;;5064244;28;20021;-49
2020/12/05 08:00:23;;;;;;;4.20;3.08;;;3.30;99.90;;;;;;5066451;28;20024;-51
2020/12/05 08:03:19;;;;;;;4.25;3.25;;;3.40;99.90;;;;;;5080240;28;20047;-52
2020/12/05 08:06:05;;;;;;;5.30;3.50;;;3.60;99.90;;;;;;5080618;28;20504;-48
2020/12/05 08:08:32;;;;;;;4.68;2.95;;;3.60;99.90;;;;;;5078910;28;20105;-48
2020/12/05 08:11:02;;;;;;;5.07;3.22;;;3.70;99.90;;;;;;5084259;28;20035;-51
2020/12/05 08:13:30;;;;;;;5.18;3.13;;;3.70;99.90;;;;;;5073102;28;20081;-49
2020/12/05 08:16:06;;;;;;;3.97;2.60;;;3.60;99.90;;;;;;5085200;28;20020;-48
2020/12/05 08:18:34;;;;;;;4.18;2.83;;;3.50;99.90;;;;;;5072199;28;20032;-49
2020/12/05 08:21:01;;;;;;;4.70;2.55;;;3.60;99.90;;;;;;5065456;28;20028;-51
2020/12/05 08:23:30;;;;;;;4.38;2.60;;;3.60;99.90;;;;;;5069869;28;20025;-49
2020/12/05 08:26:08;;;;;;;7.47;3.60;;;3.60;99.90;;;;;;5084052;28;20028;-49
2020/12/05 08:28:38;;;;;;;5.95;3.38;;;3.60;99.90;;;;;;5090533;28;20027;-49
2020/12/05 08:31:09;;;;;;;7.90;4.53;;;3.70;99.90;;;;;;5078249;28;20032;-48
2020/12/05 08:33:49;;;;;;;7.70;4.28;;;3.50;99.90;;;;;;5078767;28;20066;-53
2020/12/05 08:36:19;;;;;;;5.45;3.90;;;3.40;99.90;;;;;;5064992;28;20024;-49
2020/12/05 08:38:46;;;;;;;6.75;3.78;;;3.50;99.90;;;;;;5078155;28;20153;-50
2020/12/05 08:41:12;;;;;;;5.40;3.53;;;3.70;99.90;;;;;;5072910;28;20281;-49
2020/12/05 08:43:38;;;;;;;3.88;3.33;;;3.50;99.90;;;;;;5071743;28;20032;-50
2020/12/05 08:46:24;;;;;;;5.07;3.33;;;3.40;99.90;;;;;;5085549;28;20028;-49
2020/12/05 08:48:50;;;;;;;7.13;4.28;;;3.50;99.90;;;;;;5084391;28;20040;-49
2020/12/05 08:51:24;;;;;;;8.63;4.68;;;3.40;99.90;;;;;;5086729;28;20024;-49
2020/12/05 08:53:50;;;;;;;14.90;7.55;;;3.60;99.90;;;;;;5079958;28;20618;-50
2020/12/05 08:56:20;;;;;;;18.08;9.18;;;3.50;99.90;;;;;;5082727;28;20056;-50
2020/12/05 08:58:46;;;;;;;13.25;6.95;;;3.60;99.90;;;;;;5065199;28;20024;-49
2020/12/05 09:01:13;;;;;;;9.50;5.40;;;3.50;99.90;;;;;;5071862;28;20484;-49
2020/12/05 09:03:39;;;;;;;8.43;5.38;;;3.60;99.90;;;;;;5072592;28;20043;-47
2020/12/05 09:06:06;;;;;;;8.38;4.75;;;3.40;99.90;;;;;;5075248;28;20390;-49
2020/12/05 09:08:32;;;;;;;6.82;4.13;;;3.70;99.90;;;;;;5079116;28;20031;-50
2020/12/05 09:10:58;;;;;;;6.10;4.03;;;3.80;99.90;;;;;;5076348;28;20033;-51
2020/12/05 09:13:24;;;;;;;5.68;4.13;;;4.00;99.90;;;;;;5076299;28;20085;-49
2020/12/05 09:15:55;;;;;;;8.00;4.88;;;3.90;99.90;;;;;;5069946;28;20466;-49
2020/12/05 09:18:21;;;;;;;8.50;4.60;;;4.00;99.90;;;;;;5076769;28;20051;-51
2020/12/05 09:20:47;;;;;;;7.97;4.80;;;4.10;99.90;;;;;;5077196;28;20028;-49
2020/12/05 09:23:12;;;;;;;6.45;3.78;;;4.30;99.90;;;;;;5081806;28;20036;-51
2020/12/05 09:25:41;;;;;;;6.68;3.92;;;4.40;99.90;;;;;;5071675;28;20051;-49
2020/12/05 09:28:12;;;;;;;6.95;3.90;;;4.50;99.90;;;;;;5073155;28;20528;-50
2020/12/05 09:30:39;;;;;;;7.78;4.80;;;4.40;99.90;;;;;;5073851;28;20028;-51
2020/12/05 09:33:15;;;;;;;7.32;4.18;;;4.20;99.90;;;;;;5068543;28;20853;-48
2020/12/05 09:35:42;;;;;;;6.28;3.72;;;4.30;99.90;;;;;;5068441;28;20111;-50
2020/12/05 09:38:08;;;;;;;4.95;3.05;;;4.30;99.90;;;;;;5066722;28;20140;-52
2020/12/05 09:40:34;;;;;;;5.03;3.45;;;4.40;99.90;;;;;;5069526;28;20056;-52
2020/12/05 09:43:00;;;;;;;5.93;3.42;;;4.40;99.90;;;;;;5079788;28;20697;-49
2020/12/05 09:45:27;;;;;;;5.88;3.50;;;4.50;99.90;;;;;;5088444;28;20057;-48
2020/12/05 09:47:53;;;;;;;5.25;3.38;;;4.50;99.90;;;;;;5086706;28;20052;-52
2020/12/05 09:50:19;;;;;;;5.93;3.70;;;4.40;99.90;;;;;;5092857;28;20058;-49
2020/12/05 09:52:45;;;;;;;5.88;3.75;;;4.30;99.90;;;;;;5089490;28;20055;-49
2020/12/05 09:55:11;;;;;;;5.82;3.85;;;4.40;99.90;;;;;;5075943;28;20032;-53
2020/12/05 09:57:38;;;;;;;5.55;4.43;;;4.50;99.90;;;;;;5077880;28;20100;-52
2020/12/05 10:00:06;;;;;;;6.45;4.22;;;4.60;99.90;;;;;;5068490;28;20530;-53
2020/12/05 10:02:32;;;;;;;6.35;3.72;;;4.70;99.90;;;;;;5083178;28;20107;-52
2020/12/05 10:04:58;;;;;;;6.80;4.03;;;4.70;99.90;;;;;;5088178;28;20119;-52
2020/12/05 10:07:23;;;;;;;5.53;3.70;;;4.70;99.90;;;;;;5067319;28;20071;-53
2020/12/05 10:09:49;;;;;;;5.88;3.67;;;4.70;99.90;;;;;;5078607;28;20098;-52
2020/12/05 10:12:15;;;;;;;6.65;3.45;;;4.70;99.90;;;;;;5080720;28;20040;-52
2020/12/05 10:14:41;;;;;;;5.65;3.63;;;4.80;99.90;;;;;;5086087;28;20032;-52
2020/12/05 10:17:06;;;;;;;5.25;3.80;;;4.80;99.90;;;;;;5086512;28;20718;-51
2020/12/05 10:19:32;;;;;;;7.10;4.88;;;4.60;99.90;;;;;;5081229;28;20043;-51
2020/12/05 10:21:58;;;;;;;5.97;4.05;;;4.70;99.90;;;;;;5067696;28;20041;-52
2020/12/05 10:24:23;;;;;;;5.20;3.33;;;4.70;99.90;;;;;;5068275;28;20059;-52
2020/12/05 10:26:53;;;;;;;5.20;4.05;;;4.80;99.90;;;;;;5068639;28;20055;-49
2020/12/05 10:29:25;;;;;;;6.22;4.30;;;4.80;99.90;;;;;;5069648;28;20021;-53
2020/12/05 10:31:53;;;;;;;6.60;3.83;;;4.80;99.90;;;;;;5072424;28;20043;-52
2020/12/05 10:34:19;;;;;;;5.45;3.67;;;4.90;99.90;;;;;;5086563;28;20115;-54
2020/12/05 10:36:46;;;;;;;6.50;4.25;;;4.90;99.90;;;;;;5080988;28;20036;-53
2020/12/05 10:39:13;;;;;;;8.40;5.32;;;4.90;99.90;;;;;;5077071;28;20028;-52
2020/12/05 10:41:38;;;;;;;8.38;5.47;;;4.80;99.90;;;;;;5080953;28;20501;-53
2020/12/05 10:44:05;;;;;;;6.90;4.75;;;5.00;99.90;;;;;;5081959;28;20020;-53
2020/12/05 10:46:31;;;;;;;7.53;4.95;;;5.10;99.90;;;;;;5067421;28;20521;-51
2020/12/05 10:48:57;;;;;;;8.38;5.28;;;5.30;99.90;;;;;;5067420;28;20052;-52
2020/12/05 10:51:23;;;;;;;7.70;4.93;;;5.30;99.90;;;;;;5067205;28;20071;-52
2020/12/05 10:53:50;;;;;;;8.18;4.65;;;5.30;99.90;;;;;;5068836;28;20478;-50
2020/12/05 10:56:16;;;;;;;7.15;3.88;;;5.30;99.90;;;;;;5083432;28;20057;-50
2020/12/05 10:58:43;;;;;;;6.65;4.22;;;5.40;99.90;;;;;;5086260;28;20024;-52
2020/12/05 11:01:08;;;;;;;6.75;3.83;;;5.40;99.90;;;;;;5086218;28;20035;-53
2020/12/05 11:03:34;;;;;;;5.18;3.60;;;5.60;99.90;;;;;;5086497;28;20185;-53
2020/12/05 11:05:59;;;;;;;5.43;3.88;;;5.60;99.90;;;;;;5086214;28;20067;-53
2020/12/05 11:08:25;;;;;;;5.75;3.53;;;5.60;99.90;;;;;;5085738;28;20035;-53
2020/12/05 11:10:50;;;;;;;5.38;3.70;;;5.60;99.90;;;;;;5086014;28;20486;-52
2020/12/05 11:13:17;;;;;;;6.40;3.85;;;5.70;99.90;;;;;;5071223;28;20036;-52
2020/12/05 11:15:43;;;;;;;5.57;3.50;;;5.80;99.90;;;;;;5079218;28;20485;-50
2020/12/05 11:18:08;;;;;;;4.60;3.20;;;5.80;99.90;;;;;;5085994;28;20023;-54
2020/12/05 11:20:34;;;;;;;5.25;3.38;;;5.90;99.90;;;;;;5085719;28;20024;-53
2020/12/05 11:22:59;;;;;;;5.32;3.35;;;5.80;99.90;;;;;;5085704;28;20141;-52
2020/12/05 11:25:25;;;;;;;4.38;3.20;;;6.00;99.90;;;;;;5086174;28;20032;-53
2020/12/05 11:27:51;;;;;;;4.90;3.22;;;6.10;99.90;;;;;;5085382;28;20023;-50
2020/12/05 11:30:16;;;;;;;3.78;2.70;;;6.20;99.90;;;;;;5086530;28;20081;-53
2020/12/05 11:32:42;;;;;;;4.90;3.20;;;6.10;99.90;;;;;;5085164;28;20037;-52
2020/12/05 11:35:08;;;;;;;5.65;3.60;;;6.10;99.90;;;;;;5085216;28;20106;-51
2020/12/05 11:37:34;;;;;;;6.18;4.05;;;6.10;99.90;;;;;;5085388;28;20027;-52
2020/12/05 11:39:59;;;;;;;4.78;3.15;;;6.00;99.90;;;;;;5086167;28;20099;-49
2020/12/05 11:42:31;;;;;;;5.88;3.75;;;5.90;99.90;;;;;;5085676;28;20472;-53
2020/12/05 11:44:58;;;;;;;6.28;3.90;;;5.80;99.90;;;;;;5085454;28;20026;-53
2020/12/05 11:47:23;;;;;;;6.65;4.03;;;5.90;99.90;;;;;;5085762;28;20020;-53
2020/12/05 11:49:49;;;;;;;8.00;4.55;;;5.80;99.90;;;;;;5069692;28;20033;-53
2020/12/05 11:52:14;;;;;;;6.95;4.20;;;5.80;99.90;;;;;;5065791;28;20056;-54
2020/12/05 11:54:40;;;;;;;6.97;4.18;;;5.80;99.90;;;;;;5065141;28;20032;-54
2020/12/05 11:57:05;;;;;;;8.65;4.68;;;5.60;99.90;;;;;;5065151;28;20029;-49
2020/12/05 11:59:31;;;;;;;5.88;4.20;;;5.60;99.90;;;;;;5065354;28;20488;-50
2020/12/05 12:01:57;;;;;;;5.75;3.88;;;5.70;99.90;;;;;;5064214;28;20074;-49
2020/12/05 12:04:22;;;;;;;5.40;3.60;;;5.60;99.90;;;;;;5072613;28;20039;-51
2020/12/05 12:06:48;;;;;;;5.47;3.88;;;5.70;99.90;;;;;;5074306;28;20055;-50
2020/12/05 12:09:14;;;;;;;5.72;3.92;;;5.60;99.90;;;;;;5066421;28;20028;-49
2020/12/05 12:11:39;;;;;;;4.88;3.47;;;5.60;99.90;;;;;;5081750;28;20060;-49
2020/12/05 12:14:05;;;;;;;4.55;3.53;;;5.50;99.90;;;;;;5068126;28;20037;-52
2020/12/05 12:16:31;;;;;;;5.63;3.80;;;5.60;99.90;;;;;;5069476;28;20039;-50
2020/12/05 12:18:56;;;;;;;4.43;3.60;;;5.60;99.90;;;;;;5065660;28;20060;-49
2020/12/05 12:21:26;;;;;;;5.43;3.42;;;5.60;99.90;;;;;;5073455;28;20052;-50
2020/12/05 12:23:52;;;;;;;5.30;3.85;;;5.50;99.90;;;;;;5080641;28;20657;-51
2020/12/05 12:26:18;;;;;;;4.85;3.63;;;5.60;99.90;;;;;;5078539;28;20033;-50
2020/12/05 12:28:45;;;;;;;6.18;3.88;;;5.50;99.90;;;;;;5085462;28;20150;-51
2020/12/05 12:31:11;;;;;;;5.88;4.05;;;5.30;99.90;;;;;;5071241;28;20019;-50
2020/12/05 12:33:38;;;;;;;6.43;3.83;;;5.40;99.90;;;;;;5073420;28;20032;-49
2020/12/05 12:36:04;;;;;;;6.57;4.03;;;5.40;99.90;;;;;;5074118;28;20029;-48
2020/12/05 12:38:30;;;;;;;6.85;4.40;;;5.30;99.90;;;;;;5069103;28;20021;-49
2020/12/05 12:40:56;;;;;;;6.43;4.38;;;5.30;99.90;;;;;;5069237;28;20597;-50
2020/12/05 12:43:21;;;;;;;6.40;4.50;;;5.40;99.90;;;;;;5071489;28;20027;-48
2020/12/05 12:45:47;;;;;;;5.22;3.90;;;5.40;99.90;;;;;;5090195;28;20029;-51
2020/12/05 12:50:48;;;;;;;7.65;4.97;;;5.50;99.90;;;;;;5069999;28;20028;-51
2020/12/05 12:53:13;;;;;;;5.60;3.75;;;5.50;99.90;;;;;;5082597;28;20066;-51
2020/12/05 12:55:39;;;;;;;6.13;4.18;;;5.50;99.90;;;;;;5075591;28;20119;-48
2020/12/05 12:58:21;;;;;;;6.07;3.88;;;5.50;99.90;;;;;;5087147;28;20029;-49
2020/12/05 13:00:48;;;;;;;6.35;4.40;;;5.40;99.90;;;;;;5087566;28;20107;-49
2020/12/05 13:03:14;;;;;;;6.28;4.22;;;5.50;99.90;;;;;;5080494;28;20043;-49
2020/12/05 13:05:39;;;;;;;5.50;3.58;;;5.50;99.90;;;;;;5089087;28;20024;-49